Dr.kaiyo — JD2325 — position and weather

sailwx.info

Track history (hours):
 
Tides and Currents Weather Stations Pressure Air Temp Water Temp Dewpoint Dewpoint Depression Visibility Wind Speed Wind Dir Waves Ship Positions

Dr.kaiyo

Last reported at 2016-Aug-26 04:33 UTC. Time now 2016-Aug-27 22:17 UTC.
Position N 34°39' E 135°14'.

Length 31 m.

Type: Other ship. MMSI: 431301823.

Date/timePositionNaut miles runAvg speedWind from/ knotsBaromVisibWave heightAir tempDewpointWater temp
2016-Aug-26 04:33N 34°39' E 135°14'5 5.1
2016-Aug-26 03:30N 34°40' E 135°20'2 2.1
2016-Aug-26 02:33N 34°38' E 135°20'1010.3
2016-Aug-26 01:33N 34°31' E 135°11'10 9.7
2016-Aug-26 00:33N 34°40' E 135°15'3 2.7
2016-Aug-25 23:33N 34°41' E 135°12'  
2016-Aug-18 05:33N 34°40' E 135°12'7 6.6
2016-Aug-18 04:33N 34°36' E 135°06'9 8.5
2016-Aug-18 03:31N 34°28' E 135°02'8 8.4
2016-Aug-18 02:33N 34°32' E 135°10'8 7.7
2016-Aug-18 01:31N 34°32' E 135°20'8 8.0
2016-Aug-18 00:29N 34°40' E 135°21'5 4.9
2016-Aug-17 23:33N 34°40' E 135°15'1 0.0
2016-Aug-17 04:34N 34°41' E 135°15'4 3.9
2016-Aug-17 03:28N 34°40' E 135°20'2 2.4
2016-Aug-17 02:33N 34°39' E 135°18'1313.2
2016-Aug-17 01:33N 34°30' E 135°07'5 5.4
2016-Aug-17 00:33N 34°33' E 135°11'8 7.8
2016-Aug-16 23:30N 34°41' E 135°12'  
Track history (hours):
 
Tides and Currents Weather Stations Pressure Air Temp Water Temp Dewpoint Dewpoint Depression Visibility Wind Speed Wind Dir Waves Ship Positions

Dr.kaiyo

Last reported at 2016-Aug-26 04:33 UTC. Time now 2016-Aug-27 22:17 UTC.
Position N 34°39' E 135°14'.

Length 31 m.

Type: Other ship. MMSI: 431301823.

Date/timePositionNaut miles runAvg speedWind from/ knotsBaromVisibWave heightAir tempDewpointWater temp
2016-Aug-26 04:33N 34°39' E 135°14'5 5.1
2016-Aug-26 03:30N 34°40' E 135°20'2 2.1
2016-Aug-26 02:33N 34°38' E 135°20'1010.3
2016-Aug-26 01:33N 34°31' E 135°11'10 9.7
2016-Aug-26 00:33N 34°40' E 135°15'3 2.7
2016-Aug-25 23:33N 34°41' E 135°12'  
2016-Aug-18 05:33N 34°40' E 135°12'7 6.6
2016-Aug-18 04:33N 34°36' E 135°06'9 8.5
2016-Aug-18 03:31N 34°28' E 135°02'8 8.4
2016-Aug-18 02:33N 34°32' E 135°10'8 7.7
2016-Aug-18 01:31N 34°32' E 135°20'8 8.0
2016-Aug-18 00:29N 34°40' E 135°21'5 4.9
2016-Aug-17 23:33N 34°40' E 135°15'1 0.0
2016-Aug-17 04:34N 34°41' E 135°15'4 3.9
2016-Aug-17 03:28N 34°40' E 135°20'2 2.4
2016-Aug-17 02:33N 34°39' E 135°18'1313.2
2016-Aug-17 01:33N 34°30' E 135°07'5 5.4
2016-Aug-17 00:33N 34°33' E 135°11'8 7.8
2016-Aug-16 23:30N 34°41' E 135°12'  

Dump ship's entire track history